createdAt,value
2019-06-08T00:00:16.784Z,0.00
2019-06-08T00:01:16.451Z,0.00
2019-06-08T00:02:16.649Z,0.00
2019-06-08T00:03:16.669Z,0.00
2019-06-08T00:04:16.545Z,0.00
2019-06-08T00:05:16.866Z,0.00
2019-06-08T00:06:16.763Z,0.00
2019-06-08T00:07:16.605Z,0.00
2019-06-08T00:08:16.842Z,0.00
2019-06-08T00:09:16.767Z,0.00
2019-06-08T00:10:16.930Z,0.00
2019-06-08T00:11:16.878Z,0.00
2019-06-08T00:12:16.928Z,0.00
2019-06-08T00:13:17.043Z,0.00
2019-06-08T00:14:17.363Z,0.00
2019-06-08T00:15:16.232Z,0.00
2019-06-08T00:16:17.407Z,0.00
2019-06-08T00:17:31.349Z,0.00
2019-06-08T00:18:17.408Z,0.00
2019-06-08T00:19:17.321Z,0.00
2019-06-08T00:20:17.581Z,0.00
2019-06-08T00:21:16.136Z,0.00
2019-06-08T00:22:16.116Z,0.00
2019-06-08T00:23:16.132Z,0.00
2019-06-08T00:24:16.091Z,0.00
2019-06-08T00:25:16.096Z,0.00
2019-06-08T00:26:16.067Z,0.00
2019-06-08T00:27:16.071Z,0.00
2019-06-08T00:28:16.182Z,0.00
2019-06-08T00:29:16.317Z,0.00
2019-06-08T00:30:16.023Z,0.00
2019-06-08T00:31:17.344Z,0.00
2019-06-08T00:32:16.193Z,0.00
2019-06-08T00:33:17.032Z,0.00
2019-06-08T00:34:16.559Z,0.00
2019-06-08T00:35:16.574Z,0.00
2019-06-08T00:36:16.740Z,0.00
2019-06-08T00:37:16.718Z,0.00
2019-06-08T00:38:16.911Z,0.00
2019-06-08T00:39:16.751Z,0.00
2019-06-08T00:40:16.835Z,0.00
2019-06-08T00:41:17.047Z,0.00
2019-06-08T00:42:17.029Z,0.00
2019-06-08T00:43:17.071Z,0.00
2019-06-08T00:44:17.076Z,0.00
2019-06-08T00:45:17.240Z,0.00
2019-06-08T00:46:17.163Z,0.00
2019-06-08T00:47:16.360Z,0.00
2019-06-08T00:48:16.714Z,0.00
2019-06-08T00:49:16.443Z,0.00
2019-06-08T00:50:16.714Z,0.00
2019-06-08T00:51:16.770Z,0.00
2019-06-08T00:52:16.865Z,0.00
2019-06-08T00:53:16.992Z,0.00
2019-06-08T00:54:15.757Z,0.00
2019-06-08T00:55:15.750Z,0.00
2019-06-08T00:56:15.746Z,0.00
2019-06-08T00:57:15.723Z,0.00
2019-06-08T00:58:15.730Z,0.00
2019-06-08T00:59:15.699Z,0.00
2019-06-08T01:00:15.686Z,0.00
2019-06-08T01:01:15.677Z,0.00
2019-06-08T01:02:15.664Z,0.00
2019-06-08T01:03:15.664Z,0.00
2019-06-08T01:04:15.645Z,0.00
2019-06-08T01:05:15.630Z,0.00
2019-06-08T01:06:15.619Z,0.00
2019-06-08T01:07:15.617Z,0.00
2019-06-08T01:08:15.616Z,0.00
2019-06-08T01:09:15.602Z,0.00
2019-06-08T01:10:15.576Z,0.00
2019-06-08T01:11:15.581Z,0.00
2019-06-08T01:12:15.553Z,0.00
2019-06-08T01:13:15.554Z,0.00
2019-06-08T01:14:15.544Z,0.00
2019-06-08T01:15:15.529Z,0.00
2019-06-08T01:16:15.510Z,0.00
2019-06-08T01:17:15.508Z,0.00
2019-06-08T01:18:15.485Z,0.00
2019-06-08T01:19:15.494Z,0.00
2019-06-08T01:20:15.461Z,0.00
2019-06-08T01:21:15.454Z,0.00
2019-06-08T01:22:15.442Z,0.00
2019-06-08T01:23:15.434Z,0.00
2019-06-08T01:24:15.430Z,0.00
2019-06-08T01:25:15.409Z,0.00
2019-06-08T01:26:15.405Z,0.00
2019-06-08T01:27:15.399Z,0.00
2019-06-08T01:28:15.395Z,0.00
2019-06-08T01:29:15.374Z,0.00
2019-06-08T01:30:15.356Z,0.00
2019-06-08T01:31:15.340Z,0.00
2019-06-08T01:32:15.344Z,0.00
2019-06-08T01:33:15.314Z,0.00
2019-06-08T01:34:15.319Z,0.00
2019-06-08T01:35:15.291Z,0.00
2019-06-08T01:36:15.286Z,0.00
2019-06-08T01:37:15.270Z,0.00
2019-06-08T01:38:15.259Z,0.00
2019-06-08T01:39:15.253Z,0.00
2019-06-08T01:40:15.253Z,0.00
2019-06-08T01:41:15.231Z,0.00
2019-06-08T01:42:15.213Z,0.00
2019-06-08T01:43:15.205Z,0.00
2019-06-08T01:44:15.194Z,0.00
2019-06-08T01:45:15.197Z,0.00
2019-06-08T01:46:15.181Z,0.00
2019-06-08T01:47:15.164Z,0.00
2019-06-08T01:48:19.980Z,0.00
2019-06-08T01:49:16.143Z,0.00
2019-06-08T01:50:15.147Z,0.00
2019-06-08T01:51:15.119Z,0.00
2019-06-08T01:52:15.111Z,0.00
2019-06-08T01:53:15.111Z,0.00
2019-06-08T01:54:15.086Z,0.00
2019-06-08T01:55:15.094Z,0.00
2019-06-08T01:56:15.067Z,0.00
2019-06-08T01:57:15.051Z,0.00
2019-06-08T01:58:15.039Z,0.00
2019-06-08T01:59:15.030Z,0.00
2019-06-08T02:00:36.950Z,0.00
2019-06-08T02:01:16.013Z,0.00
2019-06-08T02:02:15.006Z,0.00
2019-06-08T02:03:15.025Z,0.00
2019-06-08T02:04:14.971Z,0.00
2019-06-08T02:05:14.964Z,0.00
2019-06-08T02:06:14.961Z,0.00
2019-06-08T02:07:14.944Z,0.00
2019-06-08T02:08:14.927Z,0.00
2019-06-08T02:09:14.922Z,0.00
2019-06-08T02:10:14.909Z,0.00
2019-06-08T02:11:14.913Z,0.00
2019-06-08T02:12:14.884Z,0.00
2019-06-08T02:13:14.872Z,0.00
2019-06-08T02:14:14.877Z,0.00
2019-06-08T02:15:14.851Z,0.00
2019-06-08T02:16:14.863Z,0.00
2019-06-08T02:17:14.831Z,0.00
2019-06-08T02:18:14.818Z,0.00
2019-06-08T02:19:14.811Z,0.00
2019-06-08T02:20:14.796Z,0.00
2019-06-08T02:21:14.798Z,4.00
2019-06-08T02:22:14.773Z,4.00
2019-06-08T02:23:14.777Z,0.00
2019-06-08T02:24:14.757Z,0.00
2019-06-08T02:25:14.736Z,0.00
2019-06-08T02:26:14.749Z,0.00
2019-06-08T02:27:14.713Z,0.00
2019-06-08T02:28:14.706Z,0.00
2019-06-08T02:29:14.690Z,4.00
2019-06-08T02:30:14.691Z,4.00
2019-06-08T02:31:14.683Z,4.00
2019-06-08T02:32:14.672Z,4.00
2019-06-08T02:33:14.652Z,4.00
2019-06-08T02:34:14.643Z,0.00
2019-06-08T02:35:14.623Z,4.00
2019-06-08T02:36:14.635Z,4.00
2019-06-08T02:37:14.606Z,0.00
2019-06-08T02:38:14.592Z,4.00
2019-06-08T02:39:14.580Z,8.00
2019-06-08T02:40:14.574Z,4.00
2019-06-08T02:41:14.572Z,4.00
2019-06-08T02:42:14.547Z,4.00
2019-06-08T02:43:14.540Z,12.00
2019-06-08T02:44:14.533Z,8.00
2019-06-08T02:45:14.513Z,8.00
2019-06-08T02:46:14.517Z,12.00
2019-06-08T02:47:16.423Z,12.00
2019-06-08T02:48:14.499Z,12.00
2019-06-08T02:49:14.469Z,16.00
2019-06-08T02:50:14.462Z,12.00
2019-06-08T02:51:14.446Z,12.00
2019-06-08T02:52:14.441Z,12.00
2019-06-08T02:53:14.431Z,20.00
2019-06-08T02:54:14.410Z,16.00
2019-06-08T02:55:14.404Z,20.00
2019-06-08T02:56:14.420Z,28.00
2019-06-08T02:57:14.389Z,36.00
2019-06-08T02:58:14.380Z,36.00
2019-06-08T02:59:14.366Z,32.00
2019-06-08T03:00:14.382Z,32.00
2019-06-08T03:01:14.345Z,28.00
2019-06-08T03:02:14.324Z,24.00
2019-06-08T03:03:14.328Z,24.00
2019-06-08T03:04:14.316Z,24.00
2019-06-08T03:05:14.294Z,28.00
2019-06-08T03:06:14.283Z,36.00
2019-06-08T03:07:14.270Z,36.00
2019-06-08T03:08:14.274Z,40.00
2019-06-08T03:09:14.246Z,44.00
2019-06-08T03:10:14.249Z,48.00
2019-06-08T03:11:14.225Z,44.00
2019-06-08T03:12:14.223Z,48.00
2019-06-08T03:13:14.214Z,52.00
2019-06-08T03:14:14.190Z,56.00
2019-06-08T03:15:14.183Z,68.00
2019-06-08T03:16:14.184Z,64.00
2019-06-08T03:17:14.162Z,64.00
2019-06-08T03:18:14.160Z,68.00
2019-06-08T03:19:21.630Z,72.00
2019-06-08T03:20:15.123Z,76.00
2019-06-08T03:21:14.110Z,80.00
2019-06-08T03:22:14.107Z,84.00
2019-06-08T03:23:14.103Z,84.00
2019-06-08T03:24:14.083Z,96.00
2019-06-08T03:25:14.074Z,96.00
2019-06-08T03:26:14.061Z,96.00
2019-06-08T03:27:14.041Z,104.00
2019-06-08T03:28:14.059Z,108.00
2019-06-08T03:29:14.031Z,124.00
2019-06-08T03:30:18.478Z,132.00
2019-06-08T03:31:15.015Z,132.00
2019-06-08T03:32:14.002Z,136.00
2019-06-08T03:33:13.992Z,136.00
2019-06-08T03:34:13.970Z,128.00
2019-06-08T03:35:14.011Z,112.00
2019-06-08T03:36:13.947Z,100.00
2019-06-08T03:37:13.936Z,104.00
2019-06-08T03:38:13.937Z,104.00
2019-06-08T03:39:13.920Z,112.00
2019-06-08T03:40:13.903Z,112.00
2019-06-08T03:41:13.890Z,116.00
2019-06-08T03:42:13.882Z,116.00
2019-06-08T03:43:13.891Z,108.00
2019-06-08T03:44:13.864Z,104.00
2019-06-08T03:45:13.850Z,100.00
2019-06-08T03:46:13.843Z,100.00
2019-06-08T03:47:13.819Z,96.00
2019-06-08T03:48:13.830Z,92.00
2019-06-08T03:49:13.805Z,92.00
2019-06-08T03:50:13.786Z,92.00
2019-06-08T03:51:13.785Z,92.00
2019-06-08T03:52:13.786Z,84.00
2019-06-08T03:53:13.774Z,88.00
2019-06-08T03:54:13.740Z,88.00
2019-06-08T03:55:13.730Z,88.00
2019-06-08T03:56:13.723Z,88.00
2019-06-08T03:57:13.709Z,84.00
2019-06-08T03:58:13.720Z,80.00
2019-06-08T03:59:13.690Z,84.00
2019-06-08T04:00:13.998Z,88.00
2019-06-08T04:01:13.671Z,88.00
2019-06-08T04:02:13.657Z,92.00
2019-06-08T04:03:13.659Z,104.00
2019-06-08T04:04:13.635Z,124.00
2019-06-08T04:05:13.634Z,168.00
2019-06-08T04:06:13.611Z,220.00
2019-06-08T04:07:13.600Z,220.00
2019-06-08T04:08:13.607Z,224.00
2019-06-08T04:09:13.579Z,212.00
2019-06-08T04:10:13.577Z,184.00
2019-06-08T04:11:13.563Z,168.00
2019-06-08T04:12:13.549Z,168.00
2019-06-08T04:13:13.546Z,212.00
2019-06-08T04:14:13.522Z,216.00
2019-06-08T04:15:13.521Z,200.00
2019-06-08T04:16:13.507Z,208.00
2019-06-08T04:17:13.492Z,224.00
2019-06-08T04:18:13.498Z,264.00
2019-06-08T04:19:13.470Z,328.00
2019-06-08T04:20:13.459Z,444.00
2019-06-08T04:21:13.446Z,500.00
2019-06-08T04:22:13.447Z,508.00
2019-06-08T04:23:13.467Z,472.00
2019-06-08T04:24:13.414Z,384.00
2019-06-08T04:25:13.403Z,300.00
2019-06-08T04:26:13.390Z,264.00
2019-06-08T04:27:13.387Z,236.00
2019-06-08T04:28:13.411Z,224.00
2019-06-08T04:29:13.362Z,288.00
2019-06-08T04:30:13.352Z,348.00
2019-06-08T04:31:13.349Z,392.00
2019-06-08T04:32:13.329Z,380.00
2019-06-08T04:33:13.340Z,340.00
2019-06-08T04:34:13.304Z,312.00
2019-06-08T04:35:13.302Z,424.00
2019-06-08T04:36:13.286Z,584.00
2019-06-08T04:37:15.878Z,656.00
2019-06-08T04:38:13.291Z,704.00
2019-06-08T04:39:13.252Z,720.00
2019-06-08T04:40:13.253Z,732.00
2019-06-08T04:41:13.247Z,748.00
2019-06-08T04:42:13.224Z,756.00
2019-06-08T04:43:13.251Z,688.00
2019-06-08T04:44:13.197Z,712.00
2019-06-08T04:45:13.186Z,752.00
2019-06-08T04:46:13.288Z,748.00
2019-06-08T04:47:13.172Z,752.00
2019-06-08T04:48:13.170Z,816.00
2019-06-08T04:49:13.167Z,852.00
2019-06-08T04:50:22.666Z,828.00
2019-06-08T04:51:14.127Z,824.00
2019-06-08T04:52:13.136Z,800.00
2019-06-08T04:53:13.117Z,780.00
2019-06-08T04:54:14.600Z,812.00
2019-06-08T04:55:13.080Z,828.00
2019-06-08T04:56:13.071Z,808.00
2019-06-08T04:57:13.055Z,752.00
2019-06-08T04:58:13.078Z,716.00
2019-06-08T04:59:13.045Z,744.00
2019-06-08T05:00:13.668Z,768.00
2019-06-08T05:01:13.014Z,772.00
2019-06-08T05:02:13.001Z,760.00
2019-06-08T05:03:13.014Z,752.00
2019-06-08T05:04:12.980Z,808.00
2019-06-08T05:05:12.973Z,880.00
2019-06-08T05:06:12.957Z,952.00
2019-06-08T05:07:12.950Z,948.00
2019-06-08T05:08:12.954Z,1060.00
2019-06-08T05:09:12.926Z,1040.00
2019-06-08T05:10:12.913Z,1112.00
2019-06-08T05:11:12.909Z,1136.00
2019-06-08T05:12:12.897Z,1192.00
2019-06-08T05:13:12.896Z,1244.00
2019-06-08T05:14:12.868Z,1328.00
2019-06-08T05:15:12.853Z,1484.00
2019-06-08T05:16:12.854Z,1560.00
2019-06-08T05:17:12.833Z,1460.00
2019-06-08T05:18:12.844Z,1644.00
2019-06-08T05:19:12.816Z,1648.00
2019-06-08T05:20:12.802Z,1484.00
2019-06-08T05:21:12.812Z,1436.00
2019-06-08T05:22:12.789Z,1420.00
2019-06-08T05:23:12.795Z,1372.00
2019-06-08T05:24:12.766Z,1236.00
2019-06-08T05:25:12.750Z,1168.00
2019-06-08T05:26:12.736Z,976.00
2019-06-08T05:27:12.730Z,888.00
2019-06-08T05:28:12.728Z,792.00
2019-06-08T05:29:12.712Z,792.00
2019-06-08T05:30:12.697Z,884.00
2019-06-08T05:31:12.682Z,944.00
2019-06-08T05:32:12.670Z,972.00
2019-06-08T05:33:12.680Z,1020.00
2019-06-08T05:34:12.648Z,1088.00
2019-06-08T05:35:12.644Z,1156.00
2019-06-08T05:36:12.636Z,1356.00
2019-06-08T05:37:12.626Z,2028.00
2019-06-08T05:38:12.618Z,3772.00
2019-06-08T05:39:12.596Z,4016.00
2019-06-08T05:40:12.598Z,3992.00
2019-06-08T05:41:12.575Z,3720.00
2019-06-08T05:42:12.562Z,3928.00
2019-06-08T05:43:12.567Z,3828.00
2019-06-08T05:44:12.537Z,3876.00
2019-06-08T05:45:12.537Z,3880.00
2019-06-08T05:46:12.522Z,3884.00
2019-06-08T05:47:12.506Z,3896.00
2019-06-08T05:48:12.513Z,3904.00
2019-06-08T05:49:12.492Z,3908.00
2019-06-08T05:50:12.478Z,3904.00
2019-06-08T05:51:12.678Z,3920.00
2019-06-08T05:52:12.456Z,3908.00
2019-06-08T05:53:12.463Z,3904.00
2019-06-08T05:54:12.433Z,3900.00
2019-06-08T05:55:12.423Z,3900.00
2019-06-08T05:56:12.408Z,3888.00
2019-06-08T05:57:12.412Z,3660.00
2019-06-08T05:58:12.426Z,3892.00
2019-06-08T05:59:12.372Z,3916.00
2019-06-08T06:00:12.367Z,3912.00
2019-06-08T06:01:12.353Z,3904.00
2019-06-08T06:02:12.341Z,3848.00
2019-06-08T06:03:12.353Z,3968.00
2019-06-08T06:04:12.329Z,3860.00
2019-06-08T06:05:12.319Z,3836.00
2019-06-08T06:06:12.295Z,3932.00
2019-06-08T06:07:12.281Z,2976.00
2019-06-08T06:08:18.771Z,3256.00
2019-06-08T06:09:13.261Z,3988.00
2019-06-08T06:10:12.253Z,2540.00
2019-06-08T06:11:12.242Z,1708.00
2019-06-08T06:12:12.229Z,3912.00
2019-06-08T06:13:12.234Z,3828.00
2019-06-08T06:14:12.211Z,3648.00
2019-06-08T06:15:12.197Z,3820.00
2019-06-08T06:16:12.193Z,3792.00
2019-06-08T06:17:12.173Z,3784.00
2019-06-08T06:18:12.174Z,3808.00
2019-06-08T06:19:12.153Z,3756.00
2019-06-08T06:20:12.140Z,3768.00
2019-06-08T06:21:12.586Z,3700.00
2019-06-08T06:22:12.115Z,3784.00
2019-06-08T06:23:12.121Z,3852.00
2019-06-08T06:24:12.104Z,4084.00
2019-06-08T06:25:12.102Z,4372.00
2019-06-08T06:26:12.071Z,2912.00
2019-06-08T06:27:12.063Z,2192.00
2019-06-08T06:28:12.068Z,1832.00
2019-06-08T06:29:12.046Z,1884.00
2019-06-08T06:30:12.047Z,1980.00
2019-06-08T06:31:12.012Z,2184.00
2019-06-08T06:32:12.011Z,2468.00
2019-06-08T06:33:12.012Z,2776.00
2019-06-08T06:34:11.985Z,2976.00
2019-06-08T06:35:11.982Z,2976.00
2019-06-08T06:36:11.968Z,2808.00
2019-06-08T06:37:11.951Z,2528.00
2019-06-08T06:38:11.953Z,2168.00
2019-06-08T06:39:11.926Z,2004.00
2019-06-08T06:40:11.914Z,2016.00
2019-06-08T06:41:11.918Z,1760.00
2019-06-08T06:42:11.890Z,1676.00
2019-06-08T06:43:11.897Z,1636.00
2019-06-08T06:44:11.872Z,1740.00
2019-06-08T06:45:11.860Z,1404.00
2019-06-08T06:46:11.848Z,1212.00
2019-06-08T06:47:11.835Z,1160.00
2019-06-08T06:48:11.839Z,1284.00
2019-06-08T06:49:11.816Z,1404.00
2019-06-08T06:50:11.802Z,3864.00
2019-06-08T06:51:25.319Z,2652.00
2019-06-08T06:52:12.780Z,2968.00
2019-06-08T06:53:11.785Z,2300.00
2019-06-08T06:54:11.762Z,3708.00
2019-06-08T06:55:11.750Z,3276.00
2019-06-08T06:56:11.736Z,3720.00
2019-06-08T06:57:11.729Z,3728.00
2019-06-08T06:58:11.734Z,3760.00
2019-06-08T06:59:11.706Z,3732.00
2019-06-08T07:00:11.704Z,3928.00
2019-06-08T07:01:11.681Z,3972.00
2019-06-08T07:02:11.668Z,4092.00
2019-06-08T07:03:11.678Z,4316.00
2019-06-08T07:04:11.646Z,4496.00
2019-06-08T07:05:11.634Z,4716.00
2019-06-08T07:06:11.624Z,4656.00
2019-06-08T07:07:11.618Z,4860.00
2019-06-08T07:08:11.617Z,4992.00
2019-06-08T07:09:11.643Z,5152.00
2019-06-08T07:10:11.584Z,5588.00
2019-06-08T07:11:11.577Z,5360.00
2019-06-08T07:12:11.556Z,3976.00
2019-06-08T07:13:11.566Z,4796.00
2019-06-08T07:14:11.536Z,5724.00
2019-06-08T07:15:11.543Z,3408.00
2019-06-08T07:16:18.347Z,3168.00
2019-06-08T07:17:12.501Z,3360.00
2019-06-08T07:18:11.505Z,4292.00
2019-06-08T07:19:11.491Z,2920.00
2019-06-08T07:20:11.473Z,2616.00
2019-06-08T07:21:11.467Z,2640.00
2019-06-08T07:22:11.448Z,2592.00
2019-06-08T07:23:11.460Z,2612.00
2019-06-08T07:24:11.428Z,2644.00
2019-06-08T07:25:11.417Z,2572.00
2019-06-08T07:26:11.434Z,2580.00
2019-06-08T07:27:11.396Z,2500.00
2019-06-08T07:28:11.403Z,2592.00
2019-06-08T07:29:11.507Z,2924.00
2019-06-08T07:30:11.390Z,2916.00
2019-06-08T07:31:11.357Z,2448.00
2019-06-08T07:32:11.345Z,3184.00
2019-06-08T07:33:11.353Z,4444.00
2019-06-08T07:34:11.323Z,3512.00
2019-06-08T07:35:11.309Z,3972.00
2019-06-08T07:36:11.298Z,5320.00
2019-06-08T07:37:11.292Z,5332.00
2019-06-08T07:38:11.293Z,5548.00
2019-06-08T07:39:11.265Z,4416.00
2019-06-08T07:40:11.249Z,4416.00
2019-06-08T07:41:11.252Z,4772.00
2019-06-08T07:42:11.235Z,4528.00
2019-06-08T07:43:11.231Z,4224.00
2019-06-08T07:44:11.209Z,3800.00
2019-06-08T07:45:11.201Z,3692.00
2019-06-08T07:46:11.195Z,3616.00
2019-06-08T07:47:11.180Z,3100.00
2019-06-08T07:48:11.185Z,2808.00
2019-06-08T07:49:11.159Z,2600.00
2019-06-08T07:50:11.154Z,2384.00
2019-06-08T07:51:11.133Z,2124.00
2019-06-08T07:52:11.205Z,2064.00
2019-06-08T07:53:11.120Z,2164.00
2019-06-08T07:54:11.101Z,2132.00
2019-06-08T07:55:11.093Z,2148.00
2019-06-08T07:56:11.078Z,2124.00
2019-06-08T07:57:11.075Z,2100.00
2019-06-08T07:58:11.079Z,2084.00
2019-06-08T07:59:11.041Z,1984.00
2019-06-08T08:00:11.077Z,1920.00
2019-06-08T08:01:11.036Z,1820.00
2019-06-08T08:02:11.014Z,1648.00
2019-06-08T08:03:10.998Z,1636.00
2019-06-08T08:04:11.005Z,1596.00
2019-06-08T08:05:10.982Z,1664.00
2019-06-08T08:06:10.993Z,1760.00
2019-06-08T08:07:10.959Z,1840.00
2019-06-08T08:08:10.952Z,1948.00
2019-06-08T08:09:10.966Z,2140.00
2019-06-08T08:10:10.937Z,2272.00
2019-06-08T08:11:10.926Z,2456.00
2019-06-08T08:12:12.243Z,2600.00
2019-06-08T08:13:10.892Z,2608.00
2019-06-08T08:14:10.905Z,2664.00
2019-06-08T08:15:10.873Z,2948.00
2019-06-08T08:16:10.859Z,3360.00
2019-06-08T08:17:10.853Z,3548.00
2019-06-08T08:18:10.882Z,3752.00
2019-06-08T08:19:10.834Z,3896.00
2019-06-08T08:20:10.830Z,3956.00
2019-06-08T08:21:21.259Z,3880.00
2019-06-08T08:22:22.077Z,3424.00
2019-06-08T08:23:11.780Z,3428.00
2019-06-08T08:24:10.772Z,3084.00
2019-06-08T08:25:10.782Z,2816.00
2019-06-08T08:26:10.752Z,2448.00
2019-06-08T08:27:10.734Z,2224.00
2019-06-08T08:28:10.728Z,2068.00
2019-06-08T08:29:10.717Z,1928.00
2019-06-08T08:30:10.725Z,1968.00
2019-06-08T08:31:11.449Z,2000.00
2019-06-08T08:32:10.689Z,1972.00
2019-06-08T08:33:10.672Z,1920.00
2019-06-08T08:34:10.664Z,1948.00
2019-06-08T08:35:10.688Z,2060.00
2019-06-08T08:36:10.644Z,2140.00
2019-06-08T08:37:10.625Z,2204.00
2019-06-08T08:38:10.615Z,2168.00
2019-06-08T08:39:10.604Z,2136.00
2019-06-08T08:40:10.593Z,2596.00
2019-06-08T08:41:10.809Z,2916.00
2019-06-08T08:42:10.568Z,2728.00
2019-06-08T08:43:10.565Z,2652.00
2019-06-08T08:44:10.557Z,2768.00
2019-06-08T08:45:10.538Z,2804.00
2019-06-08T08:46:10.535Z,2824.00
2019-06-08T08:47:10.519Z,2624.00
2019-06-08T08:48:24.595Z,2372.00
2019-06-08T08:49:13.050Z,2308.00
2019-06-08T08:50:10.482Z,2184.00
2019-06-08T08:51:10.497Z,2004.00
2019-06-08T08:52:11.651Z,1940.00
2019-06-08T08:53:10.454Z,1864.00
2019-06-08T08:54:10.447Z,1784.00
2019-06-08T08:55:10.443Z,1744.00
2019-06-08T08:56:10.437Z,1700.00
2019-06-08T08:57:10.423Z,1652.00
2019-06-08T08:58:10.402Z,1444.00
2019-06-08T08:59:10.786Z,1260.00
2019-06-08T09:00:10.379Z,1316.00
2019-06-08T09:01:10.362Z,1324.00
2019-06-08T09:02:11.502Z,1364.00
2019-06-08T09:03:25.077Z,1592.00
2019-06-08T09:04:11.331Z,1784.00
2019-06-08T09:05:10.319Z,2220.00
2019-06-08T09:06:10.311Z,2640.00
2019-06-08T09:07:10.857Z,2976.00
2019-06-08T09:08:10.289Z,2952.00
2019-06-08T09:09:10.272Z,2972.00
2019-06-08T09:10:11.429Z,3212.00
2019-06-08T09:11:10.249Z,3444.00
2019-06-08T09:12:10.253Z,3516.00
2019-06-08T09:13:12.038Z,3724.00
2019-06-08T09:14:14.098Z,3916.00
2019-06-08T09:15:10.205Z,3936.00
2019-06-08T09:16:10.207Z,3736.00
2019-06-08T09:17:10.201Z,3804.00
2019-06-08T09:18:10.185Z,3936.00
2019-06-08T09:19:10.155Z,3904.00
2019-06-08T09:20:15.356Z,3860.00
2019-06-08T09:21:11.132Z,3528.00
2019-06-08T09:22:10.160Z,3364.00
2019-06-08T09:23:16.052Z,3252.00
2019-06-08T09:24:11.212Z,3060.00
2019-06-08T09:25:13.353Z,2900.00
2019-06-08T09:26:13.127Z,2708.00
2019-06-08T09:27:10.074Z,2596.00
2019-06-08T09:28:10.077Z,2580.00
2019-06-08T09:29:11.246Z,2580.00
2019-06-08T09:30:10.037Z,2528.00
2019-06-08T09:31:12.832Z,2620.00
2019-06-08T09:32:10.024Z,2768.00
2019-06-08T09:33:10.023Z,3060.00
2019-06-08T09:34:15.037Z,2988.00
2019-06-08T09:35:10.977Z,3044.00
2019-06-08T09:36:09.979Z,2912.00
2019-06-08T09:37:09.976Z,2756.00
2019-06-08T09:38:10.979Z,2952.00
2019-06-08T09:39:12.946Z,3420.00
2019-06-08T09:40:09.942Z,3732.00
2019-06-08T09:41:09.910Z,3544.00
2019-06-08T09:42:09.898Z,4392.00
2019-06-08T09:43:13.030Z,5112.00
2019-06-08T09:44:11.581Z,5308.00
2019-06-08T09:45:09.881Z,5628.00
2019-06-08T09:46:09.860Z,6168.00
2019-06-08T09:47:12.517Z,5616.00
2019-06-08T09:48:09.854Z,4972.00
2019-06-08T09:49:11.850Z,4648.00
2019-06-08T09:50:09.820Z,4200.00
2019-06-08T09:51:09.831Z,4008.00
2019-06-08T09:52:09.798Z,4156.00
2019-06-08T09:53:23.694Z,4148.00
2019-06-08T09:54:12.645Z,3656.00
2019-06-08T09:55:09.934Z,3428.00
2019-06-08T09:56:10.145Z,3028.00
2019-06-08T09:57:09.810Z,2956.00
2019-06-08T09:58:11.816Z,3060.00
2019-06-08T09:59:11.036Z,3204.00
2019-06-08T10:00:18.020Z,3384.00
2019-06-08T10:01:12.377Z,3532.00
2019-06-08T10:02:12.814Z,3800.00
2019-06-08T10:03:09.783Z,3684.00
2019-06-08T10:04:09.730Z,3688.00
2019-06-08T10:05:09.642Z,3716.00
2019-06-08T10:06:12.279Z,3736.00
2019-06-08T10:07:09.622Z,3468.00
2019-06-08T10:08:09.785Z,2992.00
2019-06-08T10:09:09.600Z,2680.00
2019-06-08T10:10:09.901Z,2408.00
2019-06-08T10:11:09.857Z,2476.00
2019-06-08T10:12:10.018Z,2876.00
2019-06-08T10:13:10.018Z,3216.00
2019-06-08T10:14:12.391Z,3516.00
2019-06-08T10:15:09.535Z,3816.00
2019-06-08T10:16:10.486Z,3732.00
2019-06-08T10:17:09.535Z,3936.00
2019-06-08T10:18:09.545Z,4112.00
2019-06-08T10:19:10.390Z,4180.00
2019-06-08T10:20:10.150Z,3884.00
2019-06-08T10:21:09.745Z,3736.00
2019-06-08T10:22:09.462Z,3500.00
2019-06-08T10:23:27.090Z,3360.00
2019-06-08T10:24:10.474Z,3172.00
2019-06-08T10:25:11.288Z,3224.00
2019-06-08T10:26:09.411Z,3408.00
2019-06-08T10:27:11.719Z,3620.00
2019-06-08T10:28:13.668Z,3540.00
2019-06-08T10:29:10.752Z,3256.00
2019-06-08T10:30:10.194Z,3204.00
2019-06-08T10:31:09.355Z,3228.00
2019-06-08T10:32:09.574Z,3124.00
2019-06-08T10:33:10.028Z,3428.00
2019-06-08T10:34:11.197Z,3736.00
2019-06-08T10:35:10.495Z,3576.00
2019-06-08T10:36:12.184Z,3248.00
2019-06-08T10:37:12.881Z,2776.00
2019-06-08T10:38:12.028Z,2528.00
2019-06-08T10:39:11.591Z,2468.00
2019-06-08T10:40:09.259Z,2392.00
2019-06-08T10:41:15.714Z,2404.00
2019-06-08T10:42:11.491Z,2772.00
2019-06-08T10:43:09.959Z,2964.00
2019-06-08T10:44:13.820Z,3236.00
2019-06-08T10:45:14.271Z,3760.00
2019-06-08T10:46:16.353Z,3716.00
2019-06-08T10:47:11.847Z,3808.00
2019-06-08T10:48:09.699Z,3736.00
2019-06-08T10:49:13.913Z,3732.00
2019-06-08T10:50:14.716Z,4004.00
2019-06-08T10:51:12.803Z,4268.00
2019-06-08T10:52:10.647Z,4496.00
2019-06-08T10:53:11.889Z,4524.00
2019-06-08T10:54:11.078Z,4548.00
2019-06-08T10:55:10.492Z,4648.00
2019-06-08T10:56:11.806Z,5164.00
2019-06-08T10:57:09.944Z,5836.00
2019-06-08T10:58:11.255Z,6044.00
2019-06-08T10:59:11.990Z,5856.00
2019-06-08T11:00:17.977Z,4840.00
2019-06-08T11:01:12.465Z,5092.00
2019-06-08T11:02:13.464Z,5064.00
2019-06-08T11:03:11.733Z,5352.00
2019-06-08T11:04:09.393Z,5952.00
2019-06-08T11:05:12.575Z,6960.00
2019-06-08T11:06:12.961Z,5664.00
2019-06-08T11:07:13.793Z,6528.00
2019-06-08T11:08:14.167Z,6288.00
2019-06-08T11:09:14.412Z,7852.00
2019-06-08T11:10:12.077Z,7476.00
2019-06-08T11:11:11.737Z,7152.00
2019-06-08T11:12:14.617Z,8176.00
2019-06-08T11:13:14.977Z,8728.00
2019-06-08T11:14:12.528Z,8868.00
2019-06-08T11:15:11.588Z,9028.00
2019-06-08T11:16:12.754Z,7772.00
2019-06-08T11:17:10.999Z,9636.00
2019-06-08T11:18:11.835Z,8920.00
2019-06-08T11:19:13.096Z,10324.00
2019-06-08T11:20:11.859Z,10180.00
2019-06-08T11:21:12.543Z,9256.00
2019-06-08T11:22:13.859Z,7268.00
2019-06-08T11:23:12.262Z,9796.00
2019-06-08T11:24:23.290Z,0.00
2019-06-08T11:25:15.921Z,10480.00
2019-06-08T11:26:19.385Z,8020.00
2019-06-08T11:27:12.673Z,6172.00
2019-06-08T11:28:14.862Z,5208.00
2019-06-08T11:29:13.572Z,4300.00
2019-06-08T11:30:14.193Z,3716.00
2019-06-08T11:31:15.524Z,3840.00
2019-06-08T11:32:12.320Z,4212.00
2019-06-08T11:33:11.213Z,4356.00
2019-06-08T11:34:10.210Z,4212.00
2019-06-08T11:35:11.069Z,4236.00
2019-06-08T11:36:13.773Z,4120.00
2019-06-08T11:37:13.244Z,3932.00
2019-06-08T11:38:11.496Z,4084.00
2019-06-08T11:39:10.950Z,4164.00
2019-06-08T11:40:10.999Z,4868.00
2019-06-08T11:41:12.190Z,5672.00
2019-06-08T11:42:12.320Z,6748.00
2019-06-08T11:43:08.684Z,7384.00
2019-06-08T11:44:12.397Z,8924.00
2019-06-08T11:45:12.553Z,8924.00
2019-06-08T11:46:08.552Z,7260.00
2019-06-08T11:47:12.229Z,7752.00
2019-06-08T11:48:08.792Z,9784.00
2019-06-08T11:49:13.484Z,8172.00
2019-06-08T11:50:12.951Z,10580.00
2019-06-08T11:51:10.620Z,14816.00
2019-06-08T11:52:09.066Z,15008.00
2019-06-08T11:53:13.503Z,15776.00
2019-06-08T11:54:27.293Z,5936.00
2019-06-08T11:55:12.592Z,6728.00
2019-06-08T11:56:10.026Z,7328.00
2019-06-08T11:57:11.119Z,17376.00
2019-06-08T11:58:11.838Z,14432.00
2019-06-08T11:59:13.783Z,8164.00
2019-06-08T12:00:18.037Z,16000.00
2019-06-08T12:01:13.159Z,8336.00
2019-06-08T12:02:13.526Z,14080.00
2019-06-08T12:03:08.907Z,8688.00
2019-06-08T12:04:08.345Z,8684.00
2019-06-08T12:05:11.128Z,6848.00
2019-06-08T12:06:09.457Z,6116.00
2019-06-08T12:07:09.525Z,4292.00
2019-06-08T12:08:08.487Z,4176.00
2019-06-08T12:09:10.462Z,4484.00
2019-06-08T12:10:09.644Z,4632.00
2019-06-08T12:11:15.749Z,4668.00
2019-06-08T12:12:14.148Z,5296.00
2019-06-08T12:13:09.802Z,5904.00
2019-06-08T12:14:10.806Z,5588.00
2019-06-08T12:15:10.061Z,4996.00
2019-06-08T12:16:14.929Z,5372.00
2019-06-08T12:17:13.533Z,4864.00
2019-06-08T12:18:10.968Z,4936.00
2019-06-08T12:19:11.989Z,5136.00
2019-06-08T12:20:14.013Z,5364.00
2019-06-08T12:21:11.113Z,5968.00
2019-06-08T12:22:09.932Z,7692.00
2019-06-08T12:23:08.134Z,5840.00
2019-06-08T12:24:08.333Z,7092.00
2019-06-08T12:25:08.277Z,6732.00
2019-06-08T12:26:08.237Z,6016.00